Time;durP1;ratioP1;P1;durP2;ratioP2;P2;SDS_P1;SDS_P2;PMS_P1;PMS_P2;Temp;Humidity;BMP_temperature;BMP_pressure;BME280_temperature;BME280_humidity;BME280_pressure;Samples;Min_cycle;Max_cycle;Signal;HPM_P1;HPM_P2
2023/06/04 00:01:36;;;;;;;8.93;7.70;;;;;;;22.79;54.71;95211.31;6071203;22;110093;-64
2023/06/04 00:04:39;;;;;;;8.17;6.70;;;;;;;22.77;54.52;95208.97;6087625;28;109177;-62
2023/06/04 00:07:42;;;;;;;7.37;6.67;;;;;;;22.79;54.60;95208.66;6076668;28;110423;-62
2023/06/04 00:10:45;;;;;;;7.80;7.20;;;;;;;22.78;54.85;95213.19;6086986;28;109293;-66
2023/06/04 00:13:50;;;;;;;7.70;7.10;;;;;;;22.78;54.89;95215.09;6086914;28;108989;-63
2023/06/04 00:16:53;;;;;;;7.73;7.03;;;;;;;22.79;54.29;95214.78;6087148;28;109527;-61
2023/06/04 00:19:56;;;;;;;8.03;7.20;;;;;;;22.78;54.41;95209.75;6063227;28;109197;-61
2023/06/04 00:22:59;;;;;;;7.80;7.10;;;;;;;22.76;54.37;95211.94;6086540;28;108871;-63
2023/06/04 00:26:02;;;;;;;7.20;6.50;;;;;;;22.78;54.48;95212.41;6086043;28;109453;-61
2023/06/04 00:29:07;;;;;;;7.23;6.37;;;;;;;22.79;54.34;95214.78;6082760;28;109205;-66
2023/06/04 00:32:10;;;;;;;7.33;6.50;;;;;;;22.79;54.36;95205.97;6080858;28;108856;-62
2023/06/04 00:35:13;;;;;;;6.70;6.10;;;;;;;22.78;54.31;95207.06;6086953;28;109169;-62
2023/06/04 00:38:17;;;;;;;7.43;6.80;;;;;;;22.78;54.61;95207.06;6082066;28;110070;-61
2023/06/04 00:41:20;;;;;;;7.70;7.00;;;;;;;22.77;54.43;95206.28;6077465;28;110167;-61
2023/06/04 00:44:25;;;;;;;7.27;6.67;;;;;;;22.76;54.72;95199.38;6086473;28;109156;-62
2023/06/04 00:47:28;;;;;;;7.20;6.47;;;;;;;22.76;53.87;95201.25;6083050;28;109067;-61
2023/06/04 00:50:33;;;;;;;6.93;6.30;;;;;;;22.78;54.72;95194.53;6081209;28;108669;-61
2023/06/04 00:53:36;;;;;;;6.97;6.23;;;;;;;22.78;54.71;95201.75;6076459;28;108810;-62
2023/06/04 00:56:39;;;;;;;6.30;5.80;;;;;;;22.76;54.57;95201.25;6085936;28;109436;-60
2023/06/04 00:59:44;;;;;;;6.93;6.37;;;;;;;22.77;54.49;95197.50;6086057;28;109114;-61
2023/06/04 01:02:51;;;;;;;7.20;6.50;;;;;;;22.76;54.60;95198.59;6085689;28;108859;-61
2023/06/04 01:06:04;;;;;;;6.60;5.93;;;;;;;22.74;54.56;95193.56;6076294;28;110259;-62
2023/06/04 01:09:07;;;;;;;6.50;5.90;;;;;;;22.76;54.22;95202.06;6076759;28;109381;-62
2023/06/04 01:12:11;;;;;;;6.67;6.07;;;;;;;22.75;54.37;95207.69;6087184;28;109118;-64
2023/06/04 01:15:16;;;;;;;6.53;5.87;;;;;;;22.74;54.89;95204.25;6075729;28;109063;-63
2023/06/04 01:18:28;;;;;;;6.50;6.00;;;;;;;22.76;54.25;95202.06;6080396;28;109060;-63
2023/06/04 01:21:35;;;;;;;6.50;5.90;;;;;;;22.77;54.07;95208.97;6086168;28;109183;-63
2023/06/04 01:24:42;;;;;;;5.87;5.37;;;;;;;22.77;54.41;95208.19;6086747;28;109034;-64
2023/06/04 01:27:46;;;;;;;6.50;5.90;;;;;;;22.75;54.30;95207.69;6075456;28;109028;-64
2023/06/04 01:30:50;;;;;;;5.97;5.50;;;;;;;22.77;54.34;95213.50;6085869;28;110074;-63
2023/06/04 01:33:55;;;;;;;6.13;5.63;;;;;;;22.76;54.58;95210.06;6086532;28;109692;-64
2023/06/04 01:36:58;;;;;;;6.27;5.73;;;;;;;22.77;54.33;95208.19;6068806;28;109286;-63
2023/06/04 01:40:02;;;;;;;6.30;5.80;;;;;;;22.75;54.37;95210.38;6073484;28;110627;-63
2023/06/04 01:43:05;;;;;;;6.20;5.60;;;;;;;22.74;54.90;95217.56;6078066;28;109065;-63
2023/06/04 01:46:10;;;;;;;5.80;5.30;;;;;;;22.72;54.54;95211.75;6086077;28;109085;-63
2023/06/04 01:49:13;;;;;;;5.70;5.20;;;;;;;22.74;54.37;95222.13;6069281;28;109146;-64
2023/06/04 01:52:17;;;;;;;6.13;5.53;;;;;;;22.73;54.72;95212.56;6078817;28;109151;-64
2023/06/04 01:55:20;;;;;;;6.13;5.63;;;;;;;22.70;54.79;95222.75;6086587;28;109043;-63
2023/06/04 01:58:26;;;;;;;5.33;4.93;;;;;;;22.73;54.16;95223.22;6085462;28;109083;-64
2023/06/04 02:01:31;;;;;;;6.00;5.40;;;;;;;22.73;54.59;95236.56;6075021;28;109055;-63
2023/06/04 02:04:36;;;;;;;6.23;5.73;;;;;;;22.74;54.33;95224.78;6086497;28;109280;-65
2023/06/04 02:07:42;;;;;;;5.93;5.27;;;;;;;22.73;54.56;95228.56;6085932;28;109309;-63
2023/06/04 02:10:45;;;;;;;6.03;5.53;;;;;;;22.72;54.48;95225.09;6085779;28;108752;-63
2023/06/04 02:13:48;;;;;;;6.17;5.67;;;;;;;22.73;54.72;95226.69;6075224;28;109731;-63
2023/06/04 02:16:57;;;;;;;6.80;5.40;;;;;;;22.73;54.37;95229.34;6084978;28;109969;-63
2023/06/04 02:20:04;;;;;;;6.17;5.50;;;;;;;22.73;54.79;95241.91;6081046;28;110124;-64
2023/06/04 02:23:07;;;;;;;6.50;5.70;;;;;;;22.72;54.88;95237.66;6068467;28;109331;-63
2023/06/04 02:26:10;;;;;;;6.70;5.80;;;;;;;22.70;54.41;95238.75;6056781;28;109031;-63
2023/06/04 02:29:13;;;;;;;5.93;5.40;;;;;;;22.71;54.71;95242.22;6066213;28;108882;-63
2023/06/04 02:32:19;;;;;;;6.33;5.73;;;;;;;22.70;54.19;95243.28;6064736;28;109065;-63
2023/06/04 02:35:23;;;;;;;6.33;5.83;;;;;;;22.69;54.51;95245.19;6069800;28;109874;-63
2023/06/04 02:38:26;;;;;;;5.67;5.20;;;;;;;22.72;54.27;95251.00;6085686;28;109185;-63
2023/06/04 02:41:29;;;;;;;6.57;5.20;;;;;;;22.70;54.85;95252.09;6085814;28;109761;-63
2023/06/04 02:44:33;;;;;;;8.00;5.53;;;;;;;22.72;54.29;95259.00;6080537;28;109063;-64
2023/06/04 02:47:37;;;;;;;5.77;5.27;;;;;;;22.70;54.73;95253.97;6062724;28;108945;-64
2023/06/04 02:50:42;;;;;;;6.37;5.70;;;;;;;22.72;54.73;95254.44;6085535;28;109008;-63
2023/06/04 02:53:46;;;;;;;6.73;5.30;;;;;;;22.72;54.50;95261.66;6084374;28;109446;-63
2023/06/04 02:56:51;;;;;;;7.00;6.40;;;;;;;22.72;54.72;95265.13;6079487;28;109390;-65
2023/06/04 02:59:55;;;;;;;11.93;6.77;;;;;;;22.71;54.70;95266.22;6055984;28;109040;-67
2023/06/04 03:03:01;;;;;;;8.20;6.27;;;;;;;22.71;54.48;95263.53;6068267;28;109071;-68
2023/06/04 03:06:06;;;;;;;8.70;6.20;;;;;;;22.73;54.70;95272.03;6073665;28;109635;-68
2023/06/04 03:09:09;;;;;;;11.10;6.50;;;;;;;22.74;54.57;95270.16;6075118;28;110304;-68
2023/06/04 03:12:12;;;;;;;7.80;6.80;;;;;;;22.73;54.89;95268.56;6072817;28;110627;-68
2023/06/04 03:15:15;;;;;;;7.20;6.50;;;;;;;22.74;54.48;95270.94;6066448;28;109518;-68
2023/06/04 03:18:20;;;;;;;8.00;7.10;;;;;;;22.74;55.33;95272.81;6069042;28;109157;-69
2023/06/04 03:21:24;;;;;;;8.73;6.63;;;;;;;22.73;55.54;95277.38;6065443;28;109280;-68
2023/06/04 03:24:28;;;;;;;7.70;7.00;;;;;;;22.73;55.17;95276.56;6081799;28;109014;-68
2023/06/04 03:27:32;;;;;;;8.93;8.13;;;;;;;22.73;55.36;95282.69;6072632;28;109170;-68
2023/06/04 03:30:35;;;;;;;8.17;7.23;;;;;;;22.72;54.88;95275.78;6076638;28;109012;-67
2023/06/04 03:33:39;;;;;;;7.87;7.10;;;;;;;22.72;55.37;95286.47;6062429;28;112185;-73
2023/06/04 03:36:43;;;;;;;8.27;7.30;;;;;;;22.74;54.75;95299.50;6086404;28;110950;-75
2023/06/04 03:39:46;;;;;;;8.10;7.30;;;;;;;22.75;55.09;95301.06;6076304;28;109317;-73
2023/06/04 03:42:49;;;;;;;9.10;8.20;;;;;;;22.75;54.81;95306.41;6070452;28;108984;-72
2023/06/04 03:45:52;;;;;;;13.87;7.97;;;;;;;22.74;54.84;95307.50;6078717;28;111240;-74
2023/06/04 03:48:57;;;;;;;7.83;7.10;;;;;;;22.74;55.11;95304.84;6067750;28;109070;-72
2023/06/04 03:52:00;;;;;;;8.10;7.10;;;;;;;22.73;55.59;95305.94;6080948;28;109448;-74
2023/06/04 03:55:04;;;;;;;8.90;7.73;;;;;;;22.70;55.29;95300.09;6061572;28;109371;-73
2023/06/04 03:58:09;;;;;;;51.13;45.77;;;;;;;22.74;55.75;95302.94;6087845;28;110106;-73
2023/06/04 04:01:12;;;;;;;101.63;92.83;;;;;;;22.74;55.96;95310.16;6078683;28;110785;-71
2023/06/04 04:04:16;;;;;;;79.83;72.80;;;;;;;22.79;56.91;95308.16;6081186;28;109266;-72
2023/06/04 04:07:20;;;;;;;63.23;57.23;;;;;;;22.85;57.21;95319.50;6067171;28;109633;-73
2023/06/04 04:10:24;;;;;;;54.87;49.87;;;;;;;22.89;57.28;95318.59;6075824;28;109022;-74
2023/06/04 04:13:27;;;;;;;51.87;47.17;;;;;;;22.92;57.33;95317.19;6076705;28;110972;-73
2023/06/04 04:16:30;;;;;;;47.13;42.50;;;;;;;22.96;57.22;95321.63;6077888;28;109817;-73
2023/06/04 04:19:35;;;;;;;44.87;40.40;;;;;;;22.95;57.73;95320.03;6075337;28;109381;-73
2023/06/04 04:22:42;;;;;;;38.73;35.30;;;;;;;22.96;57.61;95310.94;6067028;28;109020;-73
2023/06/04 04:25:45;;;;;;;36.23;32.57;;;;;;;22.98;57.50;95321.31;6086007;28;109407;-73
2023/06/04 04:28:48;;;;;;;33.13;30.13;;;;;;;22.93;57.43;95327.56;6057402;28;109046;-70
2023/06/04 04:31:51;;;;;;;28.87;25.90;;;;;;;22.89;57.09;95329.28;6076388;28;109053;-70
2023/06/04 04:34:57;;;;;;;17.40;14.37;;;;;;;22.81;55.54;95324.66;6087969;28;109337;-70
2023/06/04 04:38:03;;;;;;;16.53;14.90;;;;;;;22.61;56.01;95328.59;6086355;28;109063;-69
2023/06/04 04:41:07;;;;;;;22.77;20.53;;;;;;;22.56;55.26;95320.69;6076775;28;109166;-69
2023/06/04 04:44:10;;;;;;;9.00;8.07;;;;;;;22.36;55.65;95324.59;6064836;28;109022;-70
2023/06/04 04:47:14;;;;;;;8.57;5.73;;;;;;;22.00;55.86;95318.41;6079355;28;109035;-73
2023/06/04 04:50:18;;;;;;;7.40;6.00;;;;;;;21.86;56.07;95318.44;6082582;28;109226;-72
2023/06/04 04:53:21;;;;;;;7.20;4.47;;;;;;;21.83;56.19;95319.00;6079229;28;109430;-71
2023/06/04 04:56:25;;;;;;;4.50;3.80;;;;;;;21.70;56.41;95322.47;6087121;28;109050;-72
2023/06/04 04:59:28;;;;;;;5.70;4.30;;;;;;;21.76;56.00;95326.59;6086582;28;109224;-72
2023/06/04 05:02:32;;;;;;;5.17;4.20;;;;;;;21.63;56.28;95325.50;6074092;28;109621;-71
2023/06/04 05:05:36;;;;;;;4.63;4.23;;;;;;;21.49;56.59;95328.16;6086707;28;110812;-72
2023/06/04 05:08:39;;;;;;;4.37;4.07;;;;;;;21.57;56.17;95333.91;6087007;28;109097;-72
2023/06/04 05:11:43;;;;;;;4.60;4.17;;;;;;;21.74;55.69;95332.22;6086643;28;109364;-72
2023/06/04 05:14:46;;;;;;;4.40;4.10;;;;;;;21.69;56.31;95332.34;6077648;28;109086;-73
2023/06/04 05:17:52;;;;;;;4.13;3.83;;;;;;;21.73;55.83;95337.84;6078763;28;111767;-71
2023/06/04 05:20:57;;;;;;;5.20;4.77;;;;;;;21.71;56.12;95343.47;6063376;28;109429;-71
2023/06/04 05:24:00;;;;;;;4.80;4.40;;;;;;;21.71;56.34;95338.16;6062767;28;109970;-72
2023/06/04 05:27:04;;;;;;;4.63;4.30;;;;;;;21.89;55.75;95333.84;6057622;28;110016;-72
2023/06/04 05:30:09;;;;;;;5.00;4.60;;;;;;;21.93;55.10;95340.13;6086165;28;109261;-72
2023/06/04 05:33:17;;;;;;;5.20;4.80;;;;;;;22.02;54.91;95338.38;6063641;28;109244;-72
2023/06/04 05:36:22;;;;;;;5.90;5.40;;;;;;;22.04;55.25;95336.19;6058038;28;108865;-72
2023/06/04 05:39:25;;;;;;;5.20;4.80;;;;;;;22.02;54.79;95346.38;6058896;28;109228;-72
2023/06/04 05:42:28;;;;;;;5.20;4.80;;;;;;;21.98;55.19;95348.03;6063161;28;109260;-72
2023/06/04 05:45:32;;;;;;;6.00;5.50;;;;;;;22.02;55.38;95354.34;6063454;28;109135;-73
2023/06/04 05:48:35;;;;;;;5.40;5.00;;;;;;;22.05;55.10;95359.09;6066654;28;111399;-72
2023/06/04 05:51:40;;;;;;;5.63;5.13;;;;;;;22.14;54.63;95359.16;6086324;28;109014;-66
2023/06/04 05:54:43;;;;;;;5.23;4.83;;;;;;;22.21;54.82;95356.13;6085921;28;110829;-69
2023/06/04 05:57:46;;;;;;;6.33;5.83;;;;;;;22.21;54.55;95362.22;6084337;28;112098;-66
2023/06/04 06:00:50;;;;;;;7.07;6.50;;;;;;;22.22;54.30;95369.16;6075832;28;109787;-66
2023/06/04 06:03:53;;;;;;;6.90;5.63;;;;;;;22.20;54.18;95371.31;6086125;28;108767;-67
2023/06/04 06:06:58;;;;;;;6.60;4.97;;;;;;;22.00;54.96;95371.69;6085292;28;109416;-68
2023/06/04 06:10:01;;;;;;;5.53;5.03;;;;;;;22.05;54.59;95390.28;6080827;28;110103;-66
2023/06/04 06:13:04;;;;;;;11.50;5.50;;;;;;;22.06;54.97;95387.31;6074078;28;109043;-65
2023/06/04 06:16:07;;;;;;;16.20;5.33;;;;;;;22.19;56.24;95385.75;6062866;28;109213;-65
2023/06/04 06:19:11;;;;;;;11.83;6.03;;;;;;;22.29;56.85;95382.06;6063967;28;110597;-71
2023/06/04 06:22:15;;;;;;;8.40;5.87;;;;;;;22.38;55.97;95390.94;6065412;28;109153;-65
2023/06/04 06:25:18;;;;;;;8.00;6.00;;;;;;;22.57;57.93;95394.28;6085449;28;109346;-67
2023/06/04 06:28:21;;;;;;;8.57;5.97;;;;;;;22.69;57.69;95391.91;6068831;28;109656;-62
2023/06/04 06:31:25;;;;;;;7.70;6.90;;;;;;;22.79;58.28;95382.06;6063063;28;109184;-61
2023/06/04 06:34:29;;;;;;;13.37;8.90;;;;;;;22.76;58.49;95382.69;6051291;28;109287;-60
2023/06/04 06:37:33;;;;;;;11.83;8.17;;;;;;;22.64;56.70;95393.88;6071998;28;109337;-61
2023/06/04 06:40:36;;;;;;;14.63;9.30;;;;;;;22.59;57.55;95402.78;6071290;28;109210;-61
2023/06/04 06:43:40;;;;;;;15.00;8.80;;;;;;;22.51;56.86;95390.09;6075775;28;110073;-60
2023/06/04 06:46:43;;;;;;;11.83;7.57;;;;;;;22.74;58.36;95400.88;6065876;28;109110;-61
2023/06/04 06:49:46;;;;;;;9.40;8.33;;;;;;;22.86;58.68;95393.13;6080119;28;110063;-61
2023/06/04 06:52:50;;;;;;;18.33;8.43;;;;;;;22.98;58.89;95401.38;6069910;28;109367;-62
2023/06/04 06:55:54;;;;;;;25.77;9.33;;;;;;;23.01;59.33;95400.78;6066419;28;109130;-63
2023/06/04 06:58:57;;;;;;;25.97;10.53;;;;;;;22.83;59.75;95399.84;6069945;28;110408;-61
2023/06/04 07:02:00;;;;;;;40.47;10.47;;;;;;;23.02;58.52;95407.72;6078514;28;109085;-64
2023/06/04 07:05:03;;;;;;;27.17;8.90;;;;;;;23.05;59.03;95399.09;6071883;28;109383;-66
2023/06/04 07:08:08;;;;;;;42.43;10.37;;;;;;;23.09;59.27;95402.72;6063634;28;110282;-65
2023/06/04 07:11:11;;;;;;;36.93;10.50;;;;;;;23.13;60.78;95397.56;6084368;28;110355;-64
2023/06/04 07:14:15;;;;;;;39.10;10.80;;;;;;;-145.53;100.00;64590.91;6115274;28;110077;-69
2023/06/04 07:17:18;;;;;;;28.90;11.33;;;;;;;-145.53;100.00;64590.91;6176201;28;20243;-70
2023/06/04 07:20:21;;;;;;;26.57;10.07;;;;;;;-145.53;100.00;64590.91;6185998;28;20453;-67
2023/06/04 07:23:26;;;;;;;36.10;12.07;;;;;;;-145.53;100.00;64590.91;6196571;28;20430;-68
2023/06/04 07:26:30;;;;;;;36.43;12.30;;;;;;;-145.53;100.00;64590.91;6196654;28;20438;-66
2023/06/04 07:29:36;;;;;;;24.20;12.47;;;;;;;-145.53;100.00;64590.91;6180929;28;20449;-70
2023/06/04 07:32:39;;;;;;;14.80;7.07;;;;;;;-145.53;100.00;64590.91;6191312;28;20441;-68
2023/06/04 07:35:43;;;;;;;8.00;6.20;;;;;;;-145.53;100.00;64590.91;6180077;28;20449;-70
2023/06/04 07:38:47;;;;;;;13.43;7.80;;;;;;;-145.53;100.00;64590.91;6197062;28;20806;-69
2023/06/04 07:41:51;;;;;;;12.67;7.47;;;;;;;-145.53;100.00;64590.91;6181761;28;20438;-69
2023/06/04 07:44:54;;;;;;;29.00;7.33;;;;;;;-145.53;100.00;64590.91;6191994;28;20443;-69
2023/06/04 07:47:57;;;;;;;185.40;21.27;;;;;;;-145.53;100.00;64590.91;6183410;28;20949;-69
2023/06/04 07:51:03;;;;;;;105.97;17.47;;;;;;;-145.53;100.00;64590.91;6181566;28;20435;-71
2023/06/04 07:54:08;;;;;;;82.00;16.67;;;;;;;-145.53;100.00;64590.91;6177120;28;20485;-70
2023/06/04 07:57:11;;;;;;;42.83;10.03;;;;;;;-145.53;100.00;64590.91;6188871;28;20434;-73
2023/06/04 08:00:17;;;;;;;31.70;8.50;;;;;;;-145.53;100.00;64590.91;6177047;28;20476;-72
2023/06/04 08:03:20;;;;;;;21.23;7.93;;;;;;;-145.53;100.00;64590.91;6192013;28;20458;-70
2023/06/04 08:06:26;;;;;;;15.13;8.50;;;;;;;-145.53;100.00;64590.91;6184702;28;20434;-71
2023/06/04 08:09:31;;;;;;;22.97;8.67;;;;;;;-145.53;100.00;64590.91;6192276;28;20910;-71
2023/06/04 08:12:34;;;;;;;15.53;7.77;;;;;;;-145.53;100.00;64590.91;6193148;28;20489;-72
2023/06/04 08:15:37;;;;;;;15.33;7.93;;;;;;;-145.53;100.00;64590.91;6185941;28;20906;-63
2023/06/04 08:18:40;;;;;;;15.00;7.37;;;;;;;-145.53;100.00;64590.91;6183640;28;20579;-71
2023/06/04 08:21:44;;;;;;;9.70;6.73;;;;;;;-145.53;100.00;64590.91;6194584;28;20932;-72
2023/06/04 08:24:49;;;;;;;14.17;7.37;;;;;;;-145.53;100.00;64590.91;6196576;28;20463;-73
2023/06/04 08:27:52;;;;;;;14.30;7.20;;;;;;;-145.53;100.00;64590.91;6184515;28;20458;-73
2023/06/04 08:30:55;;;;;;;10.57;7.03;;;;;;;-145.53;100.00;64590.91;6195309;28;20453;-72
2023/06/04 08:33:59;;;;;;;10.87;7.17;;;;;;;-145.53;100.00;64590.91;6196120;28;20461;-72
2023/06/04 08:37:02;;;;;;;10.50;7.47;;;;;;;-145.53;100.00;64590.91;6174551;28;20540;-72
2023/06/04 08:40:09;;;;;;;13.90;7.57;;;;;;;-145.53;100.00;64590.91;6174121;28;20450;-73
2023/06/04 08:43:13;;;;;;;15.23;7.40;;;;;;;-145.53;100.00;64590.91;6186229;28;20583;-72
2023/06/04 08:46:18;;;;;;;11.47;8.63;;;;;;;-145.53;100.00;64590.91;6181258;28;20789;-73
2023/06/04 08:49:23;;;;;;;19.33;7.60;;;;;;;-145.53;100.00;64590.91;6190203;28;20515;-68
2023/06/04 08:52:26;;;;;;;14.30;7.57;;;;;;;-145.53;100.00;64590.91;6190770;28;20510;-73
2023/06/04 08:55:31;;;;;;;9.97;7.63;;;;;;;-145.53;100.00;64590.91;6195925;28;20507;-66
2023/06/04 08:58:41;;;;;;;10.80;8.10;;;;;;;-145.53;100.00;64590.91;6196696;28;20410;-66
2023/06/04 09:01:45;;;;;;;10.57;8.23;;;;;;;-145.53;100.00;64590.91;6172299;28;20470;-64
2023/06/04 09:04:49;;;;;;;8.10;7.30;;;;;;;-145.53;100.00;64590.91;6172482;28;21072;-66
2023/06/04 09:07:55;;;;;;;9.57;7.70;;;;;;;-145.53;100.00;64590.91;6172188;28;20456;-65
2023/06/04 09:10:59;;;;;;;11.97;7.10;;;;;;;-145.53;100.00;64590.91;6176123;28;20450;-65
2023/06/04 09:14:04;;;;;;;8.47;7.40;;;;;;;-145.53;100.00;64590.91;6161706;28;20700;-72
2023/06/04 09:17:07;;;;;;;7.97;7.17;;;;;;;-145.53;100.00;64590.91;6186213;28;20438;-66
2023/06/04 09:20:20;;;;;;;9.50;7.37;;;;;;;-145.53;100.00;64590.91;6195689;28;20496;-66
2023/06/04 09:23:23;;;;;;;8.00;7.30;;;;;;;-145.53;100.00;64590.91;6179895;28;20443;-65
2023/06/04 09:26:27;;;;;;;9.83;7.87;;;;;;;-145.53;100.00;64590.91;6166604;28;20443;-65
2023/06/04 09:29:31;;;;;;;8.63;6.90;;;;;;;-145.53;100.00;64590.91;6171764;28;20443;-66
2023/06/04 09:32:34;;;;;;;8.10;7.40;;;;;;;-145.53;100.00;64590.91;6170836;28;20458;-65
2023/06/04 09:35:38;;;;;;;8.00;7.40;;;;;;;-145.53;100.00;64590.91;6180998;28;20971;-66
2023/06/04 09:38:41;;;;;;;8.63;7.73;;;;;;;-145.53;100.00;64590.91;6191456;28;20454;-66
2023/06/04 09:42:01;;;;;;;8.90;8.10;;;;;;;-145.53;100.00;64590.91;6189716;28;20438;-66
2023/06/04 09:45:05;;;;;;;9.47;8.57;;;;;;;-145.53;100.00;64590.91;6195028;28;20419;-67
2023/06/04 09:48:08;;;;;;;14.60;8.60;;;;;;;-145.53;100.00;64590.91;6185153;28;20938;-66
2023/06/04 09:51:15;;;;;;;10.20;8.03;;;;;;;-145.53;100.00;64590.91;6194935;28;20803;-64
2023/06/04 09:54:18;;;;;;;9.70;8.37;;;;;;;-145.53;100.00;64590.91;6192069;28;20439;-63
2023/06/04 09:57:23;;;;;;;8.20;7.50;;;;;;;-145.53;100.00;64590.91;6168985;28;20532;-63
2023/06/04 10:00:28;;;;;;;8.77;7.90;;;;;;;-145.53;100.00;64590.91;6177742;28;20925;-63
2023/06/04 10:03:33;;;;;;;7.93;7.03;;;;;;;-145.53;100.00;64590.91;6170003;28;20462;-61
2023/06/04 10:06:38;;;;;;;8.93;7.50;;;;;;;-145.53;100.00;64590.91;6170835;28;20447;-62
2023/06/04 10:09:45;;;;;;;7.70;7.00;;;;;;;-145.53;100.00;64590.91;6176193;28;20498;-63
2023/06/04 10:12:55;;;;;;;12.97;7.50;;;;;;;-145.53;100.00;64590.91;6173749;28;20459;-62
2023/06/04 10:15:59;;;;;;;8.03;7.30;;;;;;;-145.53;100.00;64590.91;6191101;28;20443;-63
2023/06/04 10:19:03;;;;;;;36.40;10.37;;;;;;;-145.53;100.00;64590.91;6184437;28;20475;-63
2023/06/04 10:22:06;;;;;;;38.07;10.30;;;;;;;-145.53;100.00;64590.91;6175821;28;20938;-62
2023/06/04 10:25:10;;;;;;;22.00;8.30;;;;;;;-145.53;100.00;64590.91;6186082;28;20776;-63
2023/06/04 10:28:15;;;;;;;25.60;9.33;;;;;;;-145.53;100.00;64590.91;6192262;28;20804;-62
2023/06/04 10:31:18;;;;;;;11.83;8.17;;;;;;;-145.53;100.00;64590.91;6172027;28;20766;-63
2023/06/04 10:34:22;;;;;;;14.07;8.07;;;;;;;-145.53;100.00;64590.91;6187728;28;20449;-62
2023/06/04 10:37:26;;;;;;;8.80;8.07;;;;;;;-145.53;100.00;64590.91;6192950;28;20812;-62
2023/06/04 10:40:33;;;;;;;8.67;8.07;;;;;;;-145.53;100.00;64590.91;6194021;28;20434;-63
2023/06/04 10:43:38;;;;;;;9.50;8.70;;;;;;;-145.53;100.00;64590.91;6175152;28;20612;-61
2023/06/04 10:46:42;;;;;;;9.90;9.00;;;;;;;-145.53;100.00;64590.91;6180553;28;20520;-61
2023/06/04 10:49:46;;;;;;;9.90;8.63;;;;;;;-145.53;100.00;64590.91;6188532;28;20587;-61
2023/06/04 10:52:53;;;;;;;11.03;8.80;;;;;;;-145.53;100.00;64590.91;6190041;28;20433;-61
2023/06/04 10:55:56;;;;;;;10.20;9.40;;;;;;;-145.53;100.00;64590.91;6186517;28;20453;-61
2023/06/04 10:59:01;;;;;;;10.17;9.27;;;;;;;-145.53;100.00;64590.91;6196771;28;20444;-61
2023/06/04 11:02:06;;;;;;;9.90;9.20;;;;;;;-145.53;100.00;64590.91;6193632;28;20449;-62
2023/06/04 11:05:10;;;;;;;10.80;9.83;;;;;;;-145.53;100.00;64590.91;6194610;28;20453;-62
2023/06/04 11:08:14;;;;;;;10.57;9.67;;;;;;;-145.53;100.00;64590.91;6187058;28;20442;-63
2023/06/04 11:11:17;;;;;;;14.97;10.33;;;;;;;-145.53;100.00;64590.91;6187126;28;20915;-63
2023/06/04 11:14:22;;;;;;;28.57;11.17;;;;;;;-145.53;100.00;64590.91;6195465;28;21048;-62
2023/06/04 11:17:25;;;;;;;15.03;10.13;;;;;;;-145.53;100.00;64590.91;6186817;28;20450;-64
2023/06/04 11:20:28;;;;;;;17.83;10.50;;;;;;;-145.53;100.00;64590.91;6180557;28;20451;-62
2023/06/04 11:23:32;;;;;;;14.93;10.57;;;;;;;-145.53;100.00;64590.91;6173118;28;20593;-61
2023/06/04 11:26:36;;;;;;;11.47;10.37;;;;;;;22.65;52.73;95448.81;6121594;28;108548;-62
2023/06/04 11:29:50;;;;;;;12.27;10.23;;;;;;;22.75;52.68;95445.13;6073612;28;109612;-62
2023/06/04 11:33:02;;;;;;;12.93;9.67;;;;;;;22.78;52.53;95445.31;6088333;28;109022;-61
2023/06/04 11:36:05;;;;;;;11.40;9.10;;;;;;;22.81;52.79;95454.59;6087336;28;109165;-62
2023/06/04 11:39:08;;;;;;;12.83;9.87;;;;;;;22.81;52.83;95443.94;6064447;28;108928;-62
2023/06/04 11:42:11;;;;;;;15.33;9.33;;;;;;;22.83;53.30;95441.75;6072929;28;109590;-63
2023/06/04 11:45:18;;;;;;;11.50;10.10;;;;;;;22.88;53.12;95447.00;6069527;28;109151;-62
2023/06/04 11:48:21;;;;;;;14.10;10.30;;;;;;;22.92;53.29;95448.75;6068592;28;110236;-61
2023/06/04 11:51:24;;;;;;;11.37;10.20;;;;;;;22.95;53.28;95452.69;6057206;28;109137;-63
2023/06/04 11:54:27;;;;;;;13.17;10.27;;;;;;;22.97;53.67;95445.97;6073612;28;108847;-62
2023/06/04 11:57:31;;;;;;;11.70;8.47;;;;;;;23.00;53.42;95439.22;6087675;28;109542;-62
2023/06/04 12:00:36;;;;;;;15.03;10.53;;;;;;;22.99;53.29;95437.66;6087657;28;111619;-62
2023/06/04 12:03:41;;;;;;;11.17;9.90;;;;;;;23.01;53.77;95435.47;6075589;28;109130;-62
2023/06/04 12:06:54;;;;;;;11.63;10.43;;;;;;;23.03;53.84;95435.19;6086951;28;109278;-63
2023/06/04 12:10:07;;;;;;;10.60;9.50;;;;;;;22.98;53.96;95438.75;6088008;28;109065;-62
2023/06/04 12:13:11;;;;;;;9.67;8.77;;;;;;;23.04;53.82;95453.56;6087517;28;109220;-63
2023/06/04 12:16:16;;;;;;;11.60;10.43;;;;;;;23.06;54.46;95445.25;6074260;28;110481;-62
2023/06/04 12:19:20;;;;;;;10.50;9.57;;;;;;;23.08;54.47;95454.53;6069887;28;109309;-62
2023/06/04 12:22:23;;;;;;;11.20;9.83;;;;;;;23.09;54.35;95450.78;6071446;28;109153;-62
2023/06/04 12:25:27;;;;;;;12.03;10.93;;;;;;;23.05;54.35;95452.47;6071800;28;109348;-62
2023/06/04 12:28:30;;;;;;;12.60;11.40;;;;;;;23.09;54.48;95453.44;6077850;28;108986;-62
2023/06/04 12:31:35;;;;;;;14.13;12.90;;;;;;;23.10;55.06;95455.03;6080531;28;109016;-62
2023/06/04 12:34:38;;;;;;;12.50;11.40;;;;;;;23.10;54.65;95456.91;6077854;28;109469;-61
2023/06/04 12:37:41;;;;;;;13.03;11.77;;;;;;;23.09;55.01;95452.66;6057109;28;109059;-62
2023/06/04 12:40:45;;;;;;;20.17;12.50;;;;;;;23.09;54.89;95456.13;6070753;28;109364;-68
2023/06/04 12:43:48;;;;;;;13.73;11.13;;;;;;;22.92;54.33;95445.28;6072275;28;109439;-67
2023/06/04 12:46:52;;;;;;;13.33;11.10;;;;;;;22.62;54.06;95452.88;6080777;28;109088;-68
2023/06/04 12:49:56;;;;;;;11.73;10.63;;;;;;;22.29;54.44;95449.50;6068925;28;108931;-68
2023/06/04 12:52:59;;;;;;;13.77;10.33;;;;;;;22.41;53.99;95446.34;6077023;28;108842;-69
2023/06/04 12:56:02;;;;;;;11.80;10.70;;;;;;;22.56;54.03;95454.03;6069407;28;109091;-70
2023/06/04 12:59:05;;;;;;;12.00;10.80;;;;;;;22.63;54.32;95448.31;6072637;28;109049;-69
2023/06/04 13:02:10;;;;;;;11.20;10.30;;;;;;;22.63;54.46;95461.66;6071336;28;110428;-70
2023/06/04 13:05:13;;;;;;;10.07;9.00;;;;;;;-145.53;100.00;64590.91;6082275;28;110156;-70
2023/06/04 13:08:16;;;;;;;20.63;10.10;;;;;;;-145.53;100.00;64590.91;6195000;28;20357;-69
2023/06/04 13:11:19;;;;;;;13.23;9.53;;;;;;;-145.53;100.00;64590.91;6177942;28;20469;-69
2023/06/04 13:14:23;;;;;;;9.43;8.60;;;;;;;-145.53;100.00;64590.91;6178619;28;20442;-69
2023/06/04 13:17:27;;;;;;;10.27;9.23;;;;;;;-145.53;100.00;64590.91;6190353;28;20524;-68
2023/06/04 13:20:30;;;;;;;9.60;8.70;;;;;;;-145.53;100.00;64590.91;6182875;28;20488;-68
2023/06/04 13:23:33;;;;;;;13.03;9.70;;;;;;;-145.53;100.00;64590.91;6176250;28;20447;-68
2023/06/04 13:26:52;;;;;;;10.40;9.40;;;;;;;-145.53;100.00;64590.91;6185190;28;20780;-71
2023/06/04 13:29:55;;;;;;;12.63;9.77;;;;;;;-145.53;100.00;64590.91;6182514;28;20437;-70
2023/06/04 13:33:00;;;;;;;15.43;10.00;;;;;;;-145.53;100.00;64590.91;6191984;28;20457;-71
2023/06/04 13:36:04;;;;;;;13.13;10.80;;;;;;;-145.53;100.00;64590.91;6174692;28;20911;-70
2023/06/04 13:39:08;;;;;;;12.33;11.13;;;;;;;-145.53;100.00;64590.91;6181676;28;20436;-70
2023/06/04 13:42:11;;;;;;;15.23;12.27;;;;;;;-145.53;100.00;64590.91;6182793;28;20441;-68
2023/06/04 13:45:16;;;;;;;18.77;12.30;;;;;;;-145.53;100.00;64590.91;6171471;28;20480;-69
2023/06/04 13:48:21;;;;;;;11.83;10.77;;;;;;;-145.53;100.00;64590.91;6184798;28;20513;-69
2023/06/04 13:51:24;;;;;;;12.63;11.33;;;;;;;-145.53;100.00;64590.91;6195076;28;20934;-70
2023/06/04 13:54:27;;;;;;;11.70;9.53;;;;;;;-145.53;100.00;64590.91;6186981;28;20545;-69
2023/06/04 13:57:31;;;;;;;10.47;9.33;;;;;;;-145.53;100.00;64590.91;6173750;28;20461;-71
2023/06/04 14:00:34;;;;;;;13.23;10.47;;;;;;;-145.53;100.00;64590.91;6188259;28;20438;-70
2023/06/04 14:03:40;;;;;;;13.53;11.30;;;;;;;-145.53;100.00;64590.91;6190761;28;20446;-70